createdAt,value
2018-06-19T00:02:17.907Z,15.73
2018-06-19T00:04:46.888Z,15.23
2018-06-19T00:07:15.967Z,14.13
2018-06-19T00:09:45.024Z,15.83
2018-06-19T00:12:14.067Z,14.30
2018-06-19T00:14:42.818Z,14.93
2018-06-19T00:17:12.140Z,15.83
2018-06-19T00:19:45.667Z,14.30
2018-06-19T00:22:14.738Z,14.50
2018-06-19T00:24:43.452Z,14.67
2018-06-19T00:27:12.092Z,13.30
2018-06-19T00:29:41.086Z,14.07
2018-06-19T00:32:10.181Z,14.00
2018-06-19T00:34:39.232Z,13.00
2018-06-19T00:37:07.938Z,13.93
2018-06-19T00:39:36.900Z,13.33
2018-06-19T00:42:05.664Z,14.60
2018-06-19T00:44:34.287Z,13.17
2018-06-19T00:47:03.223Z,13.03
2018-06-19T00:49:31.948Z,14.73
2018-06-19T00:52:00.928Z,13.40
2018-06-19T00:54:29.955Z,13.17
2018-06-19T00:56:59.939Z,13.67
2018-06-19T00:59:28.846Z,13.73
2018-06-19T01:01:58.415Z,14.33
2018-06-19T01:04:27.452Z,13.27
2018-06-19T01:06:56.243Z,13.30
2018-06-19T01:09:25.215Z,14.63
2018-06-19T01:11:54.332Z,13.33
2018-06-19T01:14:23.396Z,13.97
2018-06-19T01:16:52.439Z,13.93
2018-06-19T01:19:21.499Z,13.33
2018-06-19T01:21:50.223Z,12.87
2018-06-19T01:24:18.888Z,13.97
2018-06-19T01:26:47.851Z,14.20
2018-06-19T01:29:16.595Z,12.53
2018-06-19T01:31:45.538Z,12.47
2018-06-19T01:34:14.283Z,12.27
2018-06-19T01:36:43.236Z,11.70
2018-06-19T01:39:12.291Z,13.30
2018-06-19T01:41:41.344Z,12.87
2018-06-19T01:44:10.039Z,11.63
2018-06-19T01:46:38.996Z,13.03
2018-06-19T01:49:07.739Z,12.27
2018-06-19T01:51:36.711Z,11.33
2018-06-19T01:54:05.745Z,11.20
2018-06-19T01:56:34.733Z,12.00
2018-06-19T01:59:03.825Z,10.47
2018-06-19T02:01:32.542Z,12.90
2018-06-19T02:04:01.496Z,11.10
2018-06-19T02:06:30.544Z,12.70
2018-06-19T02:08:59.599Z,10.93
2018-06-19T02:11:28.463Z,10.83
2018-06-19T02:13:57.423Z,10.30
2018-06-19T02:16:26.487Z,10.70
2018-06-19T02:18:55.536Z,10.60
2018-06-19T02:21:24.615Z,10.83
2018-06-19T02:23:53.623Z,9.50
2018-06-19T02:26:22.687Z,10.20
2018-06-19T02:28:51.724Z,11.00
2018-06-19T02:31:20.779Z,9.57
2018-06-19T02:33:49.850Z,10.37
2018-06-19T02:36:18.919Z,10.90
2018-06-19T02:38:47.960Z,9.90
2018-06-19T02:41:17.003Z,10.33
2018-06-19T02:43:46.052Z,9.83
2018-06-19T02:46:14.751Z,10.53
2018-06-19T02:48:43.714Z,10.23
2018-06-19T02:51:12.434Z,10.00
2018-06-19T02:53:41.090Z,9.20
2018-06-19T02:56:09.734Z,10.30
2018-06-19T02:58:38.688Z,10.43
2018-06-19T03:01:07.782Z,9.43
2018-06-19T03:03:36.801Z,9.93
2018-06-19T03:06:06.145Z,9.93
2018-06-19T03:08:35.208Z,9.63
2018-06-19T03:11:04.268Z,9.17
2018-06-19T03:13:33.312Z,10.43
2018-06-19T03:16:02.357Z,8.77
2018-06-19T03:18:31.404Z,8.37
2018-06-19T03:21:00.456Z,8.43
2018-06-19T03:23:29.192Z,9.07
2018-06-19T03:25:57.801Z,8.63
2018-06-19T03:28:26.755Z,7.67
2018-06-19T03:30:56.088Z,7.90
2018-06-19T03:33:25.113Z,7.60
2018-06-19T03:35:53.882Z,7.30
2018-06-19T03:38:22.523Z,8.03
2018-06-19T03:40:51.595Z,8.07
2018-06-19T03:43:20.631Z,7.40
2018-06-19T03:45:49.691Z,7.37
2018-06-19T03:48:18.599Z,8.37
2018-06-19T03:50:47.214Z,6.57
2018-06-19T03:53:16.166Z,7.27
2018-06-19T03:55:45.189Z,7.20
2018-06-19T03:58:14.252Z,7.07
2018-06-19T04:00:42.959Z,6.90
2018-06-19T04:03:11.909Z,6.47
2018-06-19T04:05:40.975Z,7.13
2018-06-19T04:08:10.003Z,6.57
2018-06-19T04:10:38.719Z,5.90
2018-06-19T04:13:07.668Z,6.00
2018-06-19T04:15:36.703Z,5.70
2018-06-19T04:18:06.066Z,5.90
2018-06-19T04:20:35.085Z,5.90
2018-06-19T04:23:03.803Z,5.90
2018-06-19T04:25:32.760Z,6.33
2018-06-19T04:28:01.796Z,5.47
2018-06-19T04:30:30.859Z,5.50
2018-06-19T04:32:59.578Z,6.17
2018-06-19T04:35:28.637Z,5.80
2018-06-19T04:37:57.706Z,5.40
2018-06-19T04:40:26.402Z,5.77
2018-06-19T04:42:55.350Z,6.13
2018-06-19T04:45:24.403Z,6.03
2018-06-19T04:47:53.627Z,5.80
2018-06-19T04:50:22.327Z,5.47
2018-06-19T04:52:51.328Z,6.70
2018-06-19T04:55:20.361Z,6.60
2018-06-19T04:57:49.398Z,6.83
2018-06-19T05:00:18.460Z,7.07
2018-06-19T05:02:47.488Z,6.60
2018-06-19T05:05:16.543Z,6.83
2018-06-19T05:07:45.899Z,6.60
2018-06-19T05:10:14.633Z,5.93
2018-06-19T05:12:43.483Z,6.47
2018-06-19T05:15:12.471Z,6.63
2018-06-19T05:17:41.170Z,5.67
2018-06-19T05:20:10.134Z,5.40
2018-06-19T05:22:39.196Z,4.83
2018-06-19T05:25:08.456Z,5.20
2018-06-19T05:27:37.819Z,5.03
2018-06-19T05:30:06.932Z,5.33
2018-06-19T05:32:35.739Z,5.70
2018-06-19T05:35:04.691Z,5.43
2018-06-19T05:37:33.771Z,5.50
2018-06-19T05:40:02.763Z,5.20
2018-06-19T05:42:31.827Z,5.03
2018-06-19T05:45:00.879Z,6.00
2018-06-19T05:47:29.696Z,4.97
2018-06-19T05:49:58.895Z,5.20
2018-06-19T05:52:27.964Z,6.13
2018-06-19T05:54:56.662Z,4.97
2018-06-19T05:57:25.312Z,5.20
2018-06-19T05:59:53.959Z,5.30
2018-06-19T06:02:22.903Z,4.97
2018-06-19T06:04:51.971Z,6.23
2018-06-19T06:07:21.119Z,6.00
2018-06-19T06:09:50.619Z,5.80
2018-06-19T06:12:19.339Z,5.67
2018-06-19T06:14:47.957Z,5.10
2018-06-19T06:17:16.593Z,6.00
2018-06-19T06:19:45.554Z,5.00
2018-06-19T06:22:14.620Z,5.50
2018-06-19T06:24:43.659Z,5.50
2018-06-19T06:27:12.384Z,5.93
2018-06-19T06:29:41.370Z,5.80
2018-06-19T06:32:10.083Z,5.47
2018-06-19T06:34:39.023Z,5.67
2018-06-19T06:37:08.154Z,6.03
2018-06-19T06:39:37.048Z,6.03
2018-06-19T06:42:05.744Z,6.10
2018-06-19T06:44:34.752Z,6.80
2018-06-19T06:47:03.375Z,5.97
2018-06-19T06:49:32.095Z,6.30
2018-06-19T06:52:00.746Z,6.40
2018-06-19T06:54:29.705Z,7.03
2018-06-19T06:57:00.319Z,5.70
2018-06-19T06:59:29.615Z,5.63
2018-06-19T07:01:58.550Z,5.20
2018-06-19T07:04:27.516Z,5.77
2018-06-19T07:06:57.015Z,4.90
2018-06-19T07:09:25.637Z,5.37
2018-06-19T07:11:54.652Z,5.73
2018-06-19T07:14:23.372Z,4.90
2018-06-19T07:16:52.336Z,5.53
2018-06-19T07:19:21.443Z,4.93
2018-06-19T07:21:50.492Z,4.97
2018-06-19T07:24:19.701Z,4.80
2018-06-19T07:26:48.712Z,4.97
2018-06-19T07:29:17.894Z,4.93
2018-06-19T07:31:46.635Z,5.60
2018-06-19T07:34:15.360Z,4.80
2018-06-19T07:36:44.337Z,4.83
2018-06-19T07:39:13.376Z,5.10
2018-06-19T07:41:42.099Z,5.17
2018-06-19T07:44:11.081Z,5.10
2018-06-19T07:46:40.296Z,5.17
2018-06-19T07:49:09.320Z,5.77
2018-06-19T07:51:38.059Z,5.77
2018-06-19T07:54:07.015Z,5.63
2018-06-19T07:56:35.772Z,5.50
2018-06-19T07:59:04.559Z,5.60
2018-06-19T08:01:33.203Z,4.93
2018-06-19T08:04:02.144Z,4.70
2018-06-19T08:06:31.213Z,5.03
2018-06-19T08:08:59.975Z,5.60
2018-06-19T08:11:28.642Z,5.10
2018-06-19T08:13:57.259Z,4.70
2018-06-19T08:16:25.895Z,4.77
2018-06-19T08:18:54.607Z,5.50
2018-06-19T08:21:23.548Z,6.30
2018-06-19T08:23:52.283Z,5.90
2018-06-19T08:26:21.251Z,5.70
2018-06-19T08:28:50.289Z,5.77
2018-06-19T08:31:19.019Z,5.63
2018-06-19T08:33:47.975Z,5.33
2018-06-19T08:36:16.736Z,5.97
2018-06-19T08:38:45.366Z,5.70
2018-06-19T08:41:14.316Z,5.80
2018-06-19T08:43:43.063Z,6.03
2018-06-19T08:46:12.043Z,6.50
2018-06-19T08:48:41.084Z,7.07
2018-06-19T08:51:09.838Z,5.90
2018-06-19T08:53:38.802Z,6.00
2018-06-19T08:56:07.852Z,6.27
2018-06-19T08:58:36.908Z,6.07
2018-06-19T09:01:05.659Z,7.10
2018-06-19T09:03:34.628Z,6.17
2018-06-19T09:08:38.410Z,5.67
2018-06-19T09:11:07.331Z,4.70
2018-06-19T09:13:36.502Z,5.37
2018-06-19T09:16:05.599Z,7.47
2018-06-19T09:18:34.835Z,6.13
2018-06-19T09:21:03.485Z,6.03
2018-06-19T09:23:32.107Z,6.43
2018-06-19T09:26:00.800Z,5.97
2018-06-19T09:28:29.391Z,5.57
2018-06-19T09:30:58.412Z,6.20
2018-06-19T09:33:27.550Z,5.87
2018-06-19T09:35:57.241Z,6.17
2018-06-19T09:38:26.347Z,6.70
2018-06-19T09:40:55.548Z,5.40
2018-06-19T09:43:24.348Z,5.50
2018-06-19T09:45:53.147Z,5.20
2018-06-19T09:48:21.840Z,6.93
2018-06-19T09:50:51.147Z,6.73
2018-06-19T09:53:19.858Z,5.73
2018-06-19T09:55:48.723Z,5.53
2018-06-19T09:58:17.890Z,6.87
2018-06-19T10:00:47.091Z,5.90
2018-06-19T10:03:16.069Z,4.83
2018-06-19T10:05:44.765Z,6.30
2018-06-19T10:08:13.688Z,6.23
2018-06-19T10:10:42.463Z,5.77
2018-06-19T10:13:11.758Z,5.60
2018-06-19T10:15:40.824Z,6.00
2018-06-19T10:18:09.643Z,6.07
2018-06-19T10:20:39.107Z,5.83
2018-06-19T10:23:09.045Z,5.93
2018-06-19T10:25:37.783Z,5.80
2018-06-19T10:28:06.580Z,5.20
2018-06-19T10:30:35.817Z,5.77
2018-06-19T10:33:05.539Z,6.00
2018-06-19T10:35:34.220Z,5.47
2018-06-19T10:38:03.188Z,5.50
2018-06-19T10:40:32.048Z,6.03
2018-06-19T10:43:01.012Z,6.27
2018-06-19T10:45:30.053Z,5.83
2018-06-19T10:47:58.753Z,5.30
2018-06-19T10:50:27.849Z,5.60
2018-06-19T10:52:56.574Z,5.13
2018-06-19T10:55:25.179Z,5.07
2018-06-19T10:57:53.947Z,5.37
2018-06-19T11:00:22.915Z,5.10
2018-06-19T11:02:51.639Z,4.20
2018-06-19T11:05:20.586Z,5.40
2018-06-19T11:07:49.324Z,4.73
2018-06-19T11:10:18.341Z,5.20
2018-06-19T11:12:47.060Z,4.90
2018-06-19T11:15:16.016Z,5.27
2018-06-19T11:17:44.715Z,4.80
2018-06-19T11:20:13.833Z,5.00
2018-06-19T11:22:42.546Z,5.90
2018-06-19T11:25:11.511Z,5.60
2018-06-19T11:27:40.235Z,6.00
2018-06-19T11:30:09.251Z,6.00
2018-06-19T11:32:38.304Z,5.00
2018-06-19T11:35:07.327Z,5.17
2018-06-19T11:37:36.356Z,4.97
2018-06-19T11:40:05.103Z,4.83
2018-06-19T11:42:34.048Z,5.53
2018-06-19T11:45:03.135Z,4.93
2018-06-19T11:47:32.167Z,5.00
2018-06-19T11:50:01.236Z,5.37
2018-06-19T11:52:30.308Z,5.97
2018-06-19T11:54:59.363Z,4.43
2018-06-19T11:57:28.465Z,5.03
2018-06-19T11:59:57.207Z,5.47
2018-06-19T12:02:25.875Z,5.73
2018-06-19T12:04:54.780Z,5.87
2018-06-19T12:07:23.442Z,6.30
2018-06-19T12:09:52.461Z,6.27
2018-06-19T12:12:21.202Z,5.90
2018-06-19T12:14:50.167Z,6.70
2018-06-19T12:17:18.891Z,5.67
2018-06-19T12:19:47.906Z,7.17
2018-06-19T12:22:16.518Z,6.43
2018-06-19T12:24:45.181Z,7.50
2018-06-19T12:27:13.822Z,6.27
2018-06-19T12:29:42.551Z,6.43
2018-06-19T12:32:11.655Z,6.53
2018-06-19T12:34:40.707Z,6.73
2018-06-19T12:37:09.870Z,7.60
2018-06-19T12:39:38.572Z,6.60
2018-06-19T12:42:07.196Z,6.87
2018-06-19T12:44:36.155Z,6.30
2018-06-19T12:47:04.927Z,6.37
2018-06-19T12:50:40.354Z,6.23
2018-06-19T12:53:15.179Z,6.27
2018-06-19T12:55:55.791Z,6.57
2018-06-19T12:58:24.505Z,5.17
2018-06-19T13:00:53.481Z,5.33
2018-06-19T13:03:27.840Z,4.17
2018-06-19T13:06:01.984Z,5.43
2018-06-19T13:08:30.614Z,5.00
2018-06-19T13:10:59.939Z,5.47
2018-06-19T13:13:34.029Z,4.67
2018-06-19T13:16:03.028Z,5.00
2018-06-19T13:18:38.722Z,4.10
2018-06-19T13:21:07.416Z,4.10
2018-06-19T13:23:36.472Z,3.97
2018-06-19T13:26:05.515Z,3.97
2018-06-19T13:28:40.238Z,4.80
2018-06-19T13:31:14.650Z,3.83
2018-06-19T13:33:43.295Z,4.23
2018-06-19T13:36:12.252Z,4.73
2018-06-19T13:38:41.869Z,4.13
2018-06-19T13:41:23.495Z,5.33
2018-06-19T13:44:05.469Z,5.60
2018-06-19T13:46:34.512Z,5.30
2018-06-19T13:49:03.255Z,4.83
2018-06-19T13:51:32.237Z,4.97
2018-06-19T13:54:01.027Z,3.87
2018-06-19T13:57:40.915Z,3.47
2018-06-19T14:00:13.952Z,3.90
2018-06-19T14:02:42.694Z,3.87
2018-06-19T14:05:12.131Z,3.30
2018-06-19T14:08:14.071Z,3.80
2018-06-19T14:10:48.059Z,3.60
2018-06-19T14:13:16.668Z,3.00
2018-06-19T14:15:48.832Z,3.67
2018-06-19T14:18:18.676Z,3.40
2018-06-19T14:20:53.907Z,3.60
2018-06-19T14:23:22.615Z,3.40
2018-06-19T14:25:51.544Z,2.90
2018-06-19T14:28:20.600Z,3.40
2018-06-19T14:30:49.328Z,2.80
2018-06-19T14:33:18.377Z,3.17
2018-06-19T14:35:47.202Z,3.37
2018-06-19T14:38:15.781Z,3.73
2018-06-19T14:40:44.751Z,3.00
2018-06-19T14:43:13.463Z,3.37
2018-06-19T14:45:42.420Z,3.00
2018-06-19T14:48:11.188Z,2.80
2018-06-19T14:50:40.114Z,3.60
2018-06-19T14:53:08.881Z,2.90
2018-06-19T14:55:37.531Z,3.47
2018-06-19T14:58:06.178Z,3.50
2018-06-19T15:00:35.111Z,3.60
2018-06-19T15:03:04.145Z,3.83
2018-06-19T15:05:32.872Z,3.73
2018-06-19T15:08:01.827Z,3.87
2018-06-19T15:10:30.960Z,3.90
2018-06-19T15:12:59.629Z,4.20
2018-06-19T15:15:28.274Z,4.53
2018-06-19T15:17:57.214Z,4.80
2018-06-19T15:20:25.899Z,4.40
2018-06-19T15:22:54.840Z,3.87
2018-06-19T15:25:23.562Z,4.77
2018-06-19T15:27:52.221Z,5.60
2018-06-19T15:30:21.172Z,6.40
2018-06-19T15:32:49.991Z,5.07
2018-06-19T15:35:18.602Z,5.23
2018-06-19T15:37:47.603Z,5.10
2018-06-19T15:40:16.652Z,4.43
2018-06-19T15:42:45.286Z,5.03
2018-06-19T15:45:14.073Z,4.97
2018-06-19T15:47:43.875Z,4.70
2018-06-19T15:50:12.968Z,4.97
2018-06-19T15:52:41.687Z,4.43
2018-06-19T15:55:10.332Z,4.90
2018-06-19T15:57:38.987Z,4.33
2018-06-19T16:00:07.676Z,4.40
2018-06-19T16:02:36.311Z,4.57
2018-06-19T16:05:04.971Z,4.03
2018-06-19T16:07:33.699Z,3.77
2018-06-19T16:10:02.353Z,3.60
2018-06-19T16:12:30.966Z,4.13
2018-06-19T16:14:59.662Z,4.63
2018-06-19T16:17:28.309Z,4.17
2018-06-19T16:19:57.292Z,3.60
2018-06-19T16:22:26.115Z,3.00
2018-06-19T16:24:54.743Z,2.77
2018-06-19T16:27:23.375Z,3.10
2018-06-19T16:29:52.168Z,3.03
2018-06-19T16:32:20.781Z,3.80
2018-06-19T16:34:49.406Z,3.50
2018-06-19T16:37:18.351Z,3.40
2018-06-19T16:39:47.108Z,3.27
2018-06-19T16:42:16.152Z,3.60
2018-06-19T16:44:44.943Z,3.33
2018-06-19T16:47:14.091Z,3.20
2018-06-19T16:49:42.807Z,3.00
2018-06-19T16:52:11.587Z,2.60
2018-06-19T16:54:40.344Z,2.43
2018-06-19T16:57:08.966Z,2.90
2018-06-19T16:59:37.928Z,2.27
2018-06-19T17:02:06.655Z,2.80
2018-06-19T17:04:35.381Z,2.97
2018-06-19T17:07:04.163Z,2.67
2018-06-19T17:09:33.152Z,2.90
2018-06-19T17:12:02.248Z,2.77
2018-06-19T17:14:30.945Z,3.20
2018-06-19T17:16:59.579Z,3.50
2018-06-19T17:19:28.254Z,3.10
2018-06-19T17:21:57.236Z,3.70
2018-06-19T17:24:26.053Z,3.93
2018-06-19T17:26:54.681Z,3.77
2018-06-19T17:29:23.423Z,3.77
2018-06-19T17:31:52.045Z,4.37
2018-06-19T17:34:20.686Z,4.13
2018-06-19T17:36:49.696Z,4.70
2018-06-19T17:39:18.627Z,3.87
2018-06-19T17:41:47.268Z,4.67
2018-06-19T17:44:15.932Z,5.47
2018-06-19T17:46:44.567Z,5.00
2018-06-19T17:49:13.202Z,4.90
2018-06-19T17:51:41.891Z,4.80
2018-06-19T17:54:10.531Z,4.60
2018-06-19T17:56:39.235Z,4.33
2018-06-19T17:59:07.815Z,4.53
2018-06-19T18:01:36.439Z,4.47
2018-06-19T18:04:05.093Z,4.87
2018-06-19T18:06:33.707Z,5.17
2018-06-19T18:09:02.358Z,5.20
2018-06-19T18:11:31.254Z,5.30
2018-06-19T18:14:00.219Z,4.87
2018-06-19T18:16:28.951Z,5.17
2018-06-19T18:18:57.883Z,4.93
2018-06-19T18:21:27.070Z,5.27
2018-06-19T18:23:55.715Z,5.60
2018-06-19T18:26:24.704Z,5.33
2018-06-19T18:28:53.798Z,4.93
2018-06-19T18:31:22.519Z,5.00
2018-06-19T18:33:51.863Z,5.47
2018-06-19T18:36:20.623Z,5.50
2018-06-19T18:38:49.310Z,5.27
2018-06-19T18:41:17.951Z,5.50
2018-06-19T18:43:46.634Z,5.07
2018-06-19T18:46:17.006Z,4.67
2018-06-19T18:48:45.784Z,4.50
2018-06-19T18:51:14.764Z,5.07
2018-06-19T18:53:43.521Z,4.60
2018-06-19T18:56:12.146Z,4.90
2018-06-19T18:58:40.796Z,4.50
2018-06-19T19:01:11.792Z,4.90
2018-06-19T19:03:44.466Z,4.50
2018-06-19T19:06:13.807Z,4.47
2018-06-19T19:08:42.764Z,4.50
2018-06-19T19:11:16.744Z,4.57
2018-06-19T19:13:45.854Z,4.57
2018-06-19T19:16:22.842Z,3.70
2018-06-19T19:18:58.944Z,3.83
2018-06-19T19:21:27.873Z,3.77
2018-06-19T19:23:56.591Z,3.57
2018-06-19T19:26:30.643Z,3.57
2018-06-19T19:29:05.022Z,3.20
2018-06-19T19:31:33.699Z,3.70
2018-06-19T19:34:02.358Z,4.10
2018-06-19T19:36:36.459Z,3.50
2018-06-19T19:39:12.288Z,3.30
2018-06-19T19:41:40.973Z,3.40
2018-06-19T19:44:09.586Z,4.47
2018-06-19T19:46:43.786Z,3.30
2018-06-19T19:49:12.840Z,3.50
2018-06-19T19:51:41.431Z,3.27
2018-06-19T19:54:10.084Z,3.17
2018-06-19T19:56:44.734Z,3.30
2018-06-19T19:59:13.475Z,3.33
2018-06-19T20:01:42.111Z,3.50
2018-06-19T20:04:10.856Z,2.97
2018-06-19T20:06:39.507Z,3.23
2018-06-19T20:09:09.177Z,3.00
2018-06-19T20:11:37.871Z,2.87
2018-06-19T20:14:06.815Z,3.23
2018-06-19T20:16:35.498Z,3.30
2018-06-19T20:19:04.176Z,3.73
2018-06-19T20:21:33.140Z,3.90
2018-06-19T20:24:02.172Z,3.77
2018-06-19T20:26:31.235Z,3.50
2018-06-19T20:29:00.294Z,3.40
2018-06-19T20:31:29.024Z,3.33
2018-06-19T20:33:57.843Z,3.80
2018-06-19T20:36:26.479Z,4.00
2018-06-19T20:38:55.424Z,3.77
2018-06-19T20:41:24.145Z,3.93
2018-06-19T20:43:52.799Z,3.90
2018-06-19T20:46:21.417Z,3.63
2018-06-19T20:48:50.078Z,4.00
2018-06-19T20:51:18.695Z,4.70
2018-06-19T20:53:47.338Z,5.50
2018-06-19T20:56:16.009Z,6.40
2018-06-19T20:58:44.634Z,5.70
2018-06-19T21:01:13.599Z,5.90
2018-06-19T21:03:42.623Z,5.17
2018-06-19T21:06:11.588Z,5.20
2018-06-19T21:08:42.516Z,5.77
2018-06-19T21:11:13.056Z,4.57
2018-06-19T21:13:42.157Z,4.77
2018-06-19T21:16:11.399Z,4.20
2018-06-19T21:18:40.134Z,4.20
2018-06-19T21:21:08.886Z,4.10
2018-06-19T21:23:37.534Z,4.40
2018-06-19T21:26:06.160Z,3.70
2018-06-19T21:28:35.123Z,4.97
2018-06-19T21:31:04.180Z,3.90
2018-06-19T21:33:32.879Z,3.73
2018-06-19T21:36:01.548Z,3.77
2018-06-19T21:38:30.127Z,3.67
2018-06-19T21:40:59.104Z,3.47
2018-06-19T21:43:27.827Z,3.90
2018-06-19T21:45:56.459Z,3.67
2018-06-19T21:48:25.416Z,3.60
2018-06-19T21:50:54.198Z,4.00
2018-06-19T21:53:22.799Z,3.87
2018-06-19T21:55:51.439Z,3.93
2018-06-19T21:58:20.150Z,4.03
2018-06-19T22:00:48.840Z,3.97
2018-06-19T22:03:17.826Z,4.73
2018-06-19T22:05:46.888Z,4.10
2018-06-19T22:08:15.604Z,4.73
2018-06-19T22:10:44.574Z,4.47
2018-06-19T22:13:13.291Z,4.80
2018-06-19T22:15:41.921Z,4.50
2018-06-19T22:18:10.547Z,4.37
2018-06-19T22:20:39.488Z,4.50
2018-06-19T22:23:08.415Z,4.90
2018-06-19T22:25:37.479Z,4.10
2018-06-19T22:28:06.798Z,4.10
2018-06-19T22:30:35.828Z,4.23
2018-06-19T22:33:04.995Z,4.57
2018-06-19T22:35:34.037Z,4.47
2018-06-19T22:38:03.083Z,4.50
2018-06-19T22:40:32.093Z,4.03
2018-06-19T22:43:01.172Z,4.30
2018-06-19T22:45:29.883Z,4.60
2018-06-19T22:47:58.516Z,4.40
2018-06-19T22:50:27.125Z,4.67
2018-06-19T22:52:55.808Z,4.67
2018-06-19T22:55:24.396Z,4.30
2018-06-19T22:57:53.360Z,4.33
2018-06-19T23:00:22.662Z,4.50
2018-06-19T23:02:51.514Z,4.20
2018-06-19T23:05:20.444Z,4.50
2018-06-19T23:07:49.319Z,4.93
2018-06-19T23:10:18.282Z,4.53
2018-06-19T23:12:47.330Z,4.20
2018-06-19T23:15:16.045Z,4.27
2018-06-19T23:17:45.001Z,4.93
2018-06-19T23:20:14.020Z,5.57
2018-06-19T23:22:43.916Z,5.07
2018-06-19T23:25:12.944Z,5.33
2018-06-19T23:27:42.187Z,5.50
2018-06-19T23:30:11.376Z,4.77
2018-06-19T23:32:40.470Z,5.83
2018-06-19T23:35:09.194Z,6.27
2018-06-19T23:37:38.136Z,6.00
2018-06-19T23:40:06.843Z,6.43
2018-06-19T23:42:35.528Z,6.20
2018-06-19T23:45:04.852Z,6.70
2018-06-19T23:47:34.439Z,5.87
2018-06-19T23:50:03.175Z,6.10
2018-06-19T23:52:32.444Z,6.73
2018-06-19T23:55:01.463Z,5.30
2018-06-19T23:57:30.197Z,6.13
2018-06-19T23:59:58.834Z,5.50
